createdAt,value
2019-05-22T00:01:17.023Z,11.57
2019-05-22T00:03:57.542Z,11.42
2019-05-22T00:06:28.061Z,11.43
2019-05-22T00:08:54.318Z,11.29
2019-05-22T00:11:29.382Z,11.49
2019-05-22T00:13:55.352Z,11.44
2019-05-22T00:16:22.194Z,11.53
2019-05-22T00:18:50.668Z,11.39
2019-05-22T00:21:16.622Z,11.51
2019-05-22T00:23:44.244Z,11.52
2019-05-22T00:26:11.202Z,11.54
2019-05-22T00:28:38.653Z,11.53
2019-05-22T00:31:06.253Z,11.56
2019-05-22T00:33:31.822Z,11.68
2019-05-22T00:35:59.785Z,11.92
2019-05-22T00:38:25.360Z,11.85
2019-05-22T00:40:58.965Z,11.77
2019-05-22T00:43:38.405Z,11.60
2019-05-22T00:46:05.303Z,11.42
2019-05-22T00:48:32.171Z,11.38
2019-05-22T00:51:19.730Z,11.29
2019-05-22T00:53:58.933Z,11.22
2019-05-22T00:56:39.519Z,11.40
2019-05-22T00:59:11.712Z,11.29
2019-05-22T01:01:44.859Z,11.27
2019-05-22T01:04:11.558Z,11.40
2019-05-22T01:06:38.937Z,11.49
2019-05-22T01:09:09.206Z,11.69
2019-05-22T01:11:36.892Z,11.61
2019-05-22T01:14:05.224Z,11.48
2019-05-22T01:16:32.946Z,11.26
2019-05-22T01:19:00.066Z,11.15
2019-05-22T01:21:26.738Z,11.31
2019-05-22T01:23:53.622Z,11.49
2019-05-22T01:26:21.249Z,11.59
2019-05-22T01:28:48.568Z,11.51
2019-05-22T01:31:22.670Z,11.29
2019-05-22T01:34:05.803Z,11.33
2019-05-22T01:36:47.227Z,11.61
2019-05-22T01:39:55.085Z,11.31
2019-05-22T01:42:28.308Z,11.39
2019-05-22T01:45:05.000Z,11.50
2019-05-22T01:47:48.708Z,11.34
2019-05-22T01:50:24.351Z,11.28
2019-05-22T01:52:51.899Z,11.39
2019-05-22T01:55:20.785Z,11.28
2019-05-22T01:57:54.025Z,11.42
2019-05-22T02:00:20.618Z,11.28
2019-05-22T02:02:47.366Z,11.26
2019-05-22T02:05:14.622Z,11.34
2019-05-22T02:07:41.997Z,11.44
2019-05-22T02:10:08.883Z,11.29
2019-05-22T02:12:53.087Z,11.29
2019-05-22T02:15:19.697Z,11.33
2019-05-22T02:17:47.446Z,11.19
2019-05-22T02:20:14.142Z,11.26
2019-05-22T02:22:40.738Z,11.38
2019-05-22T02:25:08.398Z,11.20
2019-05-22T02:27:34.298Z,11.14
2019-05-22T02:30:02.324Z,11.29
2019-05-22T02:32:29.459Z,11.38
2019-05-22T02:34:59.317Z,11.60
2019-05-22T02:37:25.432Z,11.40
2019-05-22T02:39:51.984Z,11.40
2019-05-22T02:42:26.693Z,11.52
2019-05-22T02:44:52.817Z,11.42
2019-05-22T02:47:21.571Z,11.67
2019-05-22T02:49:48.803Z,11.50
2019-05-22T02:52:16.764Z,11.37
2019-05-22T02:54:44.308Z,11.49
2019-05-22T02:57:11.808Z,11.47
2019-05-22T02:59:37.428Z,11.32
2019-05-22T03:02:04.761Z,11.55
2019-05-22T03:04:57.632Z,11.58
2019-05-22T03:07:24.777Z,11.52
2019-05-22T03:09:50.775Z,11.56
2019-05-22T03:12:17.038Z,11.70
2019-05-22T03:14:43.503Z,11.78
2019-05-22T03:17:30.818Z,11.86
2019-05-22T03:20:00.024Z,11.77
2019-05-22T03:22:30.808Z,11.87
2019-05-22T03:25:00.184Z,11.61
2019-05-22T03:27:42.610Z,11.58
2019-05-22T03:30:15.005Z,11.56
2019-05-22T03:32:43.870Z,11.60
2019-05-22T03:35:08.584Z,11.75
2019-05-22T03:37:34.430Z,11.75
2019-05-22T03:39:59.947Z,11.69
2019-05-22T03:42:26.008Z,11.53
2019-05-22T03:44:53.888Z,11.34
2019-05-22T03:47:21.049Z,11.49
2019-05-22T03:49:48.473Z,11.49
2019-05-22T03:52:15.180Z,11.42
2019-05-22T03:54:42.035Z,11.49
2019-05-22T03:57:07.715Z,11.28
2019-05-22T03:59:33.517Z,11.31
2019-05-22T04:02:00.489Z,11.25
2019-05-22T04:04:40.479Z,11.38
2019-05-22T04:07:08.558Z,11.40
2019-05-22T04:09:34.956Z,11.38
2019-05-22T04:12:02.159Z,11.30
2019-05-22T04:14:37.821Z,11.15
2019-05-22T04:17:05.276Z,11.14
2019-05-22T04:19:47.438Z,10.98
2019-05-22T04:21:58.221Z,11.09
2019-05-22T04:24:24.080Z,11.21
2019-05-22T04:26:51.182Z,11.12
2019-05-22T04:29:16.924Z,11.12
2019-05-22T04:31:58.321Z,10.76
2019-05-22T04:34:23.950Z,10.86
2019-05-22T04:36:51.594Z,10.85
2019-05-22T04:39:24.473Z,11.12
2019-05-22T04:41:50.088Z,11.24
2019-05-22T04:44:16.313Z,11.29
2019-05-22T04:46:43.714Z,11.45
2019-05-22T04:49:09.980Z,11.22
2019-05-22T04:51:36.443Z,11.48
2019-05-22T04:54:02.408Z,11.54
2019-05-22T04:56:29.641Z,11.62
2019-05-22T04:58:56.014Z,11.32
2019-05-22T05:01:23.168Z,11.52
2019-05-22T05:03:49.165Z,11.53
2019-05-22T05:06:26.604Z,11.61
2019-05-22T05:08:52.406Z,11.20
2019-05-22T05:11:18.550Z,11.54
2019-05-22T05:13:44.059Z,11.47
2019-05-22T05:16:09.690Z,11.53
2019-05-22T05:18:35.979Z,11.38
2019-05-22T05:21:01.994Z,11.44
2019-05-22T05:23:28.296Z,11.41
2019-05-22T05:25:53.775Z,11.28
2019-05-22T05:28:20.668Z,11.24
2019-05-22T05:30:46.323Z,11.15
2019-05-22T05:33:11.955Z,11.30
2019-05-22T05:35:42.404Z,11.11
2019-05-22T05:38:08.936Z,11.17
2019-05-22T05:40:42.497Z,11.45
2019-05-22T05:43:10.770Z,11.49
2019-05-22T05:45:46.408Z,11.36
2019-05-22T05:48:17.003Z,11.40
2019-05-22T05:51:02.301Z,11.12
2019-05-22T05:53:29.429Z,11.06
2019-05-22T05:56:31.981Z,11.24
2019-05-22T05:58:59.548Z,11.39
2019-05-22T06:01:30.599Z,11.39
2019-05-22T06:03:58.943Z,11.35
2019-05-22T06:07:19.217Z,11.40
2019-05-22T06:09:47.204Z,11.31
2019-05-22T06:12:15.961Z,11.45
2019-05-22T06:14:43.263Z,11.17
2019-05-22T06:18:26.988Z,11.25
2019-05-22T06:21:03.899Z,11.04
2019-05-22T06:24:23.441Z,10.95
2019-05-22T06:27:18.980Z,10.96
2019-05-22T06:29:57.267Z,11.05
2019-05-22T06:33:08.528Z,10.94
2019-05-22T06:35:37.694Z,10.95
2019-05-22T06:38:48.677Z,11.04
2019-05-22T06:41:14.510Z,11.01
2019-05-22T06:44:32.800Z,11.11
2019-05-22T06:47:00.425Z,11.08
2019-05-22T06:49:44.305Z,11.04
2019-05-22T06:52:10.693Z,11.08
2019-05-22T06:54:36.454Z,11.43
2019-05-22T06:57:02.142Z,11.33
2019-05-22T06:59:27.625Z,11.09
2019-05-22T07:02:02.021Z,11.31
2019-05-22T07:04:29.269Z,11.15
2019-05-22T07:06:55.815Z,11.16
2019-05-22T07:09:23.016Z,11.32
2019-05-22T07:11:49.081Z,11.22
2019-05-22T07:14:15.854Z,11.47
2019-05-22T07:16:59.209Z,11.39
2019-05-22T07:19:27.322Z,11.29
2019-05-22T07:21:53.344Z,11.44
2019-05-22T07:24:20.003Z,11.23
2019-05-22T07:26:46.832Z,11.35
2019-05-22T07:29:13.568Z,11.51
2019-05-22T07:31:39.824Z,11.37
2019-05-22T07:34:05.833Z,11.43
2019-05-22T07:36:34.101Z,11.53
2019-05-22T07:38:59.633Z,11.75
2019-05-22T07:41:25.244Z,11.95
2019-05-22T07:43:50.725Z,11.69
2019-05-22T07:46:16.758Z,11.83
2019-05-22T07:48:43.578Z,12.04
2019-05-22T07:51:10.235Z,11.79
2019-05-22T07:53:35.719Z,11.64
2019-05-22T07:56:05.211Z,11.60
2019-05-22T07:58:33.171Z,11.68
2019-05-22T08:01:01.893Z,11.85
2019-05-22T08:03:28.629Z,11.83
2019-05-22T08:05:57.822Z,11.81
2019-05-22T08:08:25.074Z,11.97
2019-05-22T08:10:51.308Z,12.17
2019-05-22T08:13:17.563Z,12.11
2019-05-22T08:15:43.035Z,12.18
2019-05-22T08:18:09.439Z,12.26
2019-05-22T08:20:36.760Z,12.21
2019-05-22T08:23:03.490Z,12.16
2019-05-22T08:25:29.534Z,11.96
2019-05-22T08:27:56.294Z,12.27
2019-05-22T08:30:22.116Z,12.43
2019-05-22T08:32:47.869Z,12.38
2019-05-22T08:35:14.022Z,12.45
2019-05-22T08:37:40.867Z,12.39
2019-05-22T08:40:07.928Z,12.40
2019-05-22T08:42:35.617Z,12.45
2019-05-22T08:45:01.660Z,12.75
2019-05-22T08:47:27.288Z,12.89
2019-05-22T08:49:53.225Z,13.07
2019-05-22T08:52:23.477Z,12.99
2019-05-22T08:54:49.868Z,13.07
2019-05-22T08:57:15.798Z,13.29
2019-05-22T08:59:41.285Z,13.38
2019-05-22T09:02:08.701Z,13.44
2019-05-22T09:04:34.093Z,13.35
2019-05-22T09:06:59.602Z,13.25
2019-05-22T09:09:26.422Z,13.52
2019-05-22T09:11:51.989Z,13.52
2019-05-22T09:14:17.455Z,13.79
2019-05-22T09:16:43.962Z,13.44
2019-05-22T09:19:09.857Z,13.45
2019-05-22T09:21:35.471Z,13.95
2019-05-22T09:24:03.188Z,14.27
2019-05-22T09:26:29.684Z,14.36
2019-05-22T09:28:55.345Z,14.20
2019-05-22T09:31:21.189Z,14.24
2019-05-22T09:33:46.828Z,14.17
2019-05-22T09:36:13.187Z,13.91
2019-05-22T09:38:38.732Z,14.05
2019-05-22T09:41:05.508Z,14.27
2019-05-22T09:43:30.946Z,14.17
2019-05-22T09:45:56.415Z,13.86
2019-05-22T09:48:21.871Z,13.82
2019-05-22T09:50:47.492Z,14.00
2019-05-22T09:53:13.665Z,14.33
2019-05-22T09:55:39.552Z,14.66
2019-05-22T09:58:05.796Z,14.81
2019-05-22T10:00:32.953Z,14.91
2019-05-22T10:02:58.670Z,14.77
2019-05-22T10:05:24.070Z,14.59
2019-05-22T10:08:00.312Z,14.53
2019-05-22T10:10:18.330Z,14.72
2019-05-22T10:12:43.908Z,14.76
2019-05-22T10:15:11.196Z,14.94
2019-05-22T10:17:38.869Z,15.00
2019-05-22T10:20:05.593Z,14.84
2019-05-22T10:22:34.354Z,14.83
2019-05-22T10:25:15.094Z,14.96
2019-05-22T10:27:28.137Z,14.86
2019-05-22T10:29:54.813Z,15.13
2019-05-22T10:32:20.717Z,15.32
2019-05-22T10:34:46.642Z,15.30
2019-05-22T10:37:12.986Z,15.12
2019-05-22T10:39:39.772Z,15.00
2019-05-22T10:42:05.677Z,15.20
2019-05-22T10:44:31.903Z,15.50
2019-05-22T10:46:57.534Z,15.50
2019-05-22T10:49:23.075Z,15.50
2019-05-22T10:51:48.887Z,15.46
2019-05-22T10:54:14.626Z,15.78
2019-05-22T10:56:40.121Z,15.67
2019-05-22T10:59:07.103Z,15.79
2019-05-22T11:01:37.270Z,15.65
2019-05-22T11:04:01.144Z,16.02
2019-05-22T11:06:27.222Z,15.75
2019-05-22T11:08:52.891Z,15.68
2019-05-22T11:11:18.543Z,16.05
2019-05-22T11:13:59.806Z,16.32
2019-05-22T11:16:13.245Z,16.13
2019-05-22T11:18:38.982Z,16.22
2019-05-22T11:21:04.856Z,16.45
2019-05-22T11:23:30.322Z,16.79
2019-05-22T11:25:57.981Z,16.90
2019-05-22T11:28:24.467Z,17.12
2019-05-22T11:30:49.997Z,16.71
2019-05-22T11:33:15.642Z,16.37
2019-05-22T11:35:41.799Z,16.60
2019-05-22T11:38:07.360Z,16.43
2019-05-22T11:40:33.676Z,16.23
2019-05-22T11:42:59.200Z,16.01
2019-05-22T11:45:25.384Z,16.53
2019-05-22T11:47:50.993Z,16.81
2019-05-22T11:50:18.061Z,16.98
2019-05-22T11:52:43.964Z,16.91
2019-05-22T11:55:11.062Z,16.82
2019-05-22T11:57:40.275Z,16.92
2019-05-22T12:00:09.283Z,16.98
2019-05-22T12:02:34.676Z,17.35
2019-05-22T12:05:00.243Z,17.25
2019-05-22T12:07:25.750Z,17.14
2019-05-22T12:09:51.269Z,17.34
2019-05-22T12:12:23.577Z,17.44
2019-05-22T12:14:49.299Z,17.56
2019-05-22T12:17:15.303Z,17.70
2019-05-22T12:19:41.063Z,17.80
2019-05-22T12:22:07.641Z,17.45
2019-05-22T12:24:37.188Z,17.25
2019-05-22T12:27:00.969Z,17.34
2019-05-22T12:29:27.142Z,17.38
2019-05-22T12:31:53.478Z,17.23
2019-05-22T12:34:19.711Z,17.12
2019-05-22T12:36:45.995Z,17.00
2019-05-22T12:39:16.633Z,16.86
2019-05-22T12:41:43.845Z,16.96
2019-05-22T12:44:10.039Z,17.17
2019-05-22T12:46:36.590Z,17.18
2019-05-22T12:49:09.048Z,17.31
2019-05-22T12:51:34.707Z,17.56
2019-05-22T12:54:00.403Z,17.93
2019-05-22T12:56:26.310Z,18.15
2019-05-22T12:58:53.887Z,18.27
2019-05-22T13:01:21.001Z,18.08
2019-05-22T13:03:48.757Z,18.20
2019-05-22T13:06:14.733Z,17.78
2019-05-22T13:08:41.078Z,17.52
2019-05-22T13:11:07.802Z,17.16
2019-05-22T13:13:33.554Z,17.19
2019-05-22T13:16:02.093Z,17.65
2019-05-22T13:18:30.262Z,17.53
2019-05-22T13:20:57.432Z,17.55
2019-05-22T13:23:26.788Z,17.30
2019-05-22T13:25:54.948Z,17.18
2019-05-22T13:28:21.354Z,17.29
2019-05-22T13:30:53.624Z,17.40
2019-05-22T13:33:24.744Z,17.64
2019-05-22T13:35:51.986Z,17.63
2019-05-22T13:38:19.524Z,17.67
2019-05-22T13:40:49.971Z,18.16
2019-05-22T13:43:16.435Z,18.32
2019-05-22T13:45:42.861Z,18.36
2019-05-22T13:48:09.117Z,18.23
2019-05-22T13:50:34.812Z,18.14
2019-05-22T13:53:03.235Z,17.83
2019-05-22T13:55:29.436Z,17.62
2019-05-22T13:57:55.785Z,17.68
2019-05-22T14:00:25.451Z,17.68
2019-05-22T14:02:51.524Z,17.75
2019-05-22T14:05:18.461Z,17.79
2019-05-22T14:07:44.030Z,17.99
2019-05-22T14:10:14.009Z,18.37
2019-05-22T14:12:42.198Z,18.65
2019-05-22T14:15:08.011Z,18.47
2019-05-22T14:17:34.020Z,18.23
2019-05-22T14:20:00.264Z,18.29
2019-05-22T14:22:26.063Z,18.47
2019-05-22T14:24:51.861Z,18.55
2019-05-22T14:27:17.444Z,18.62
2019-05-22T14:29:43.653Z,18.56
2019-05-22T14:32:13.421Z,18.44
2019-05-22T14:34:38.965Z,18.43
2019-05-22T14:37:05.281Z,18.14
2019-05-22T14:39:32.742Z,18.24
2019-05-22T14:41:59.073Z,18.24
2019-05-22T14:44:25.002Z,18.07
2019-05-22T14:46:52.164Z,17.97
2019-05-22T14:49:20.821Z,17.88
2019-05-22T14:51:45.958Z,17.85
2019-05-22T14:54:12.458Z,17.94
2019-05-22T14:56:39.193Z,17.83
2019-05-22T14:59:05.395Z,17.78
2019-05-22T15:01:31.149Z,17.87
2019-05-22T15:03:58.557Z,17.86
2019-05-22T15:06:24.148Z,18.02
2019-05-22T15:08:49.978Z,18.08
2019-05-22T15:11:16.925Z,18.01
2019-05-22T15:13:42.913Z,17.97
2019-05-22T15:16:18.663Z,17.95
2019-05-22T15:18:44.608Z,17.95
2019-05-22T15:21:11.613Z,18.00
2019-05-22T15:23:50.100Z,18.03
2019-05-22T15:26:20.138Z,18.05
2019-05-22T15:28:46.339Z,18.28
2019-05-22T15:31:14.088Z,18.35
2019-05-22T15:33:41.252Z,18.49
2019-05-22T15:36:10.852Z,18.52
2019-05-22T15:38:41.073Z,18.55
2019-05-22T15:41:08.509Z,18.57
2019-05-22T15:43:34.661Z,18.33
2019-05-22T15:46:03.632Z,18.31
2019-05-22T15:48:34.754Z,18.33
2019-05-22T15:51:10.699Z,18.25
2019-05-22T15:53:39.854Z,18.26
2019-05-22T15:57:00.016Z,18.11
2019-05-22T15:59:28.937Z,18.25
2019-05-22T16:01:55.230Z,18.08
2019-05-22T16:04:24.402Z,18.06
2019-05-22T16:06:51.752Z,18.01
2019-05-22T16:09:20.495Z,18.02
2019-05-22T16:11:53.084Z,18.03
2019-05-22T16:14:21.139Z,18.01
2019-05-22T16:16:51.373Z,18.06
2019-05-22T16:19:17.789Z,18.10
2019-05-22T16:21:48.540Z,18.05
2019-05-22T16:24:16.945Z,17.98
2019-05-22T16:26:44.010Z,17.87
2019-05-22T16:29:10.306Z,17.84
2019-05-22T16:31:39.706Z,17.95
2019-05-22T16:34:06.979Z,17.89
2019-05-22T16:36:33.986Z,17.96
2019-05-22T16:39:00.953Z,17.94
2019-05-22T16:41:29.122Z,18.00
2019-05-22T16:43:56.498Z,17.98
2019-05-22T16:46:24.368Z,18.03
2019-05-22T16:48:51.542Z,17.99
2019-05-22T16:51:18.644Z,17.97
2019-05-22T16:53:50.942Z,18.07
2019-05-22T16:56:17.369Z,18.05
2019-05-22T16:58:43.859Z,18.11
2019-05-22T17:01:11.280Z,18.14
2019-05-22T17:03:38.234Z,18.08
2019-05-22T17:06:04.747Z,18.31
2019-05-22T17:08:31.046Z,18.22
2019-05-22T17:10:58.634Z,18.20
2019-05-22T17:13:25.730Z,18.12
2019-05-22T17:15:54.024Z,18.16
2019-05-22T17:18:21.309Z,18.14
2019-05-22T17:20:47.902Z,18.19
2019-05-22T17:23:14.416Z,18.23
2019-05-22T17:25:40.386Z,18.33
2019-05-22T17:28:08.649Z,18.14
2019-05-22T17:30:37.141Z,18.21
2019-05-22T17:33:05.389Z,18.16
2019-05-22T17:35:32.298Z,18.17
2019-05-22T17:37:58.526Z,18.19
2019-05-22T17:40:25.460Z,18.05
2019-05-22T17:42:53.357Z,18.13
2019-05-22T17:45:22.877Z,18.06
2019-05-22T17:47:54.714Z,18.02
2019-05-22T17:50:26.777Z,17.80
2019-05-22T17:52:51.445Z,17.89
2019-05-22T17:55:20.255Z,17.87
2019-05-22T17:57:46.972Z,17.96
2019-05-22T18:00:20.340Z,17.79
2019-05-22T18:02:45.950Z,17.69
2019-05-22T18:05:12.191Z,17.87
2019-05-22T18:07:38.818Z,17.77
2019-05-22T18:10:08.564Z,17.64
2019-05-22T18:12:34.848Z,17.69
2019-05-22T18:15:01.108Z,17.70
2019-05-22T18:17:28.355Z,17.84
2019-05-22T18:19:56.703Z,17.77
2019-05-22T18:22:22.517Z,17.75
2019-05-22T18:24:48.075Z,17.75
2019-05-22T18:27:31.737Z,17.85
2019-05-22T18:29:57.873Z,17.80
2019-05-22T18:32:23.645Z,17.78
2019-05-22T18:34:49.109Z,17.70
2019-05-22T18:37:14.585Z,17.75
2019-05-22T18:39:40.188Z,17.74
2019-05-22T18:42:05.690Z,17.72
2019-05-22T18:44:31.187Z,17.70
2019-05-22T18:46:56.950Z,17.71
2019-05-22T18:49:22.309Z,17.73
2019-05-22T18:51:48.147Z,17.64
2019-05-22T18:54:13.623Z,17.66
2019-05-22T18:56:39.074Z,17.61
2019-05-22T18:59:04.921Z,17.61
2019-05-22T19:01:30.628Z,17.53
2019-05-22T19:03:56.068Z,17.47
2019-05-22T19:06:30.110Z,17.51
2019-05-22T19:08:50.167Z,17.47
2019-05-22T19:11:15.743Z,17.27
2019-05-22T19:13:41.288Z,17.30
2019-05-22T19:16:07.500Z,17.32
2019-05-22T19:18:32.937Z,17.24
2019-05-22T19:20:58.806Z,17.20
2019-05-22T19:23:24.364Z,17.16
2019-05-22T19:25:50.107Z,17.29
2019-05-22T19:28:15.657Z,17.16
2019-05-22T19:30:41.773Z,17.20
2019-05-22T19:33:07.401Z,17.21
2019-05-22T19:35:32.866Z,17.27
2019-05-22T19:38:00.738Z,17.22
2019-05-22T19:40:26.273Z,17.16
2019-05-22T19:42:52.159Z,17.27
2019-05-22T19:45:19.201Z,17.24
2019-05-22T19:47:52.885Z,17.19
2019-05-22T19:50:23.666Z,17.20
2019-05-22T19:52:48.727Z,17.20
2019-05-22T19:55:17.271Z,17.24
2019-05-22T19:57:43.418Z,17.26
2019-05-22T20:00:10.013Z,17.30
2019-05-22T20:02:36.538Z,17.19
2019-05-22T20:05:02.157Z,17.18
2019-05-22T20:07:27.538Z,17.00
2019-05-22T20:09:54.519Z,17.07
2019-05-22T20:12:20.014Z,17.01
2019-05-22T20:14:46.561Z,17.03
2019-05-22T20:17:12.615Z,16.97
2019-05-22T20:19:38.166Z,16.95
2019-05-22T20:22:04.342Z,16.91
2019-05-22T20:24:29.969Z,16.75
2019-05-22T20:26:55.900Z,16.72
2019-05-22T20:29:22.117Z,16.47
2019-05-22T20:31:47.657Z,16.33
2019-05-22T20:34:13.701Z,16.33
2019-05-22T20:36:39.755Z,16.27
2019-05-22T20:39:09.427Z,16.16
2019-05-22T20:41:58.026Z,15.93
2019-05-22T20:44:24.037Z,15.88
2019-05-22T20:46:51.318Z,15.88
2019-05-22T20:49:17.342Z,15.77
2019-05-22T20:51:43.980Z,15.66
2019-05-22T20:54:11.429Z,15.73
2019-05-22T20:56:39.939Z,15.60
2019-05-22T20:59:06.588Z,15.54
2019-05-22T21:01:33.223Z,15.65
2019-05-22T21:04:03.970Z,15.64
2019-05-22T21:06:32.634Z,15.62
2019-05-22T21:09:00.840Z,15.51
2019-05-22T21:11:29.895Z,15.45
2019-05-22T21:13:55.505Z,15.50
2019-05-22T21:16:21.022Z,15.34
2019-05-22T21:18:51.996Z,15.54
2019-05-22T21:21:19.301Z,15.48
2019-05-22T21:23:44.943Z,15.60
2019-05-22T21:26:11.390Z,15.72
2019-05-22T21:28:37.612Z,15.47
2019-05-22T21:31:14.477Z,15.53
2019-05-22T21:33:40.370Z,15.51
2019-05-22T21:36:08.517Z,15.49
2019-05-22T21:38:34.257Z,15.35
2019-05-22T21:41:00.312Z,15.20
2019-05-22T21:43:25.896Z,14.96
2019-05-22T21:45:51.783Z,15.02
2019-05-22T21:48:17.534Z,14.90
2019-05-22T21:50:43.247Z,14.94
2019-05-22T21:53:12.927Z,15.10
2019-05-22T21:55:39.567Z,15.15
2019-05-22T21:58:06.000Z,15.09
2019-05-22T22:00:53.856Z,15.10
2019-05-22T22:03:24.271Z,14.90
2019-05-22T22:05:50.275Z,14.73
2019-05-22T22:08:16.220Z,14.75
2019-05-22T22:10:43.660Z,14.73
2019-05-22T22:13:09.212Z,14.75
2019-05-22T22:15:41.043Z,14.69
2019-05-22T22:18:07.928Z,14.68
2019-05-22T22:20:33.741Z,14.64
2019-05-22T22:22:59.893Z,14.64
2019-05-22T22:25:26.173Z,14.75
2019-05-22T22:27:54.598Z,14.72
2019-05-22T22:30:30.491Z,14.50
2019-05-22T22:32:59.857Z,14.65
2019-05-22T22:35:25.925Z,14.65
2019-05-22T22:37:51.803Z,14.57
2019-05-22T22:40:22.305Z,14.33
2019-05-22T22:42:50.157Z,14.19
2019-05-22T22:45:24.167Z,14.29
2019-05-22T22:47:51.786Z,14.21
2019-05-22T22:50:19.429Z,14.15
2019-05-22T22:52:47.028Z,14.29
2019-05-22T22:55:17.469Z,14.42
2019-05-22T22:57:43.097Z,14.16
2019-05-22T23:00:12.314Z,14.09
2019-05-22T23:02:40.182Z,14.16
2019-05-22T23:05:07.698Z,14.15
2019-05-22T23:07:36.044Z,13.94
2019-05-22T23:10:08.746Z,13.97
2019-05-22T23:12:37.855Z,14.07
2019-05-22T23:15:05.028Z,13.91
2019-05-22T23:17:32.583Z,13.85
2019-05-22T23:19:55.688Z,13.66
2019-05-22T23:22:21.893Z,13.65
2019-05-22T23:24:52.050Z,13.59
2019-05-22T23:27:19.493Z,13.51
2019-05-22T23:29:46.761Z,13.44
2019-05-22T23:32:14.977Z,13.40
2019-05-22T23:34:40.437Z,13.34
2019-05-22T23:37:07.560Z,13.25
2019-05-22T23:39:33.746Z,13.23
2019-05-22T23:42:05.137Z,13.15
2019-05-22T23:44:34.322Z,13.10
2019-05-22T23:47:00.350Z,12.99
2019-05-22T23:49:26.203Z,13.09
2019-05-22T23:51:53.150Z,12.99
2019-05-22T23:54:20.896Z,12.85
2019-05-22T23:56:49.292Z,12.91
2019-05-22T23:59:16.730Z,13.05
